Time;durP1;ratioP1;P1;durP2;ratioP2;P2;SDS_P1;SDS_P2;PMS_P1;PMS_P2;Temp;Humidity;BMP_temperature;BMP_pressure;BME280_temperature;BME280_humidity;BME280_pressure;Samples;Min_cycle;Max_cycle;Signal;HPM_P1;HPM_P2
2022/06/12 00:03:42;;;;;;;6.25;2.25;;;;;;;17.60;53.41;99686.13;10413742;28;20041;-78
2022/06/12 00:08:42;;;;;;;17.27;2.92;;;;;;;17.52;53.66;99676.53;10413385;28;20521;-77
2022/06/12 00:13:48;;;;;;;5.95;2.42;;;;;;;17.67;54.70;99711.00;10413185;28;20052;-78
2022/06/12 00:18:49;;;;;;;6.43;2.47;;;;;;;17.64;54.27;99695.34;10413545;28;20049;-78
2022/06/12 00:23:53;;;;;;;6.90;2.40;;;;;;;17.66;55.47;99693.25;10410687;28;20478;-77
2022/06/12 00:28:59;;;;;;;12.35;3.30;;;;;;;17.57;56.52;99686.59;10412164;28;20050;-77
2022/06/12 00:34:01;;;;;;;8.30;3.60;;;;;;;16.55;56.95;99555.88;10412149;28;20038;-77
2022/06/12 00:39:04;;;;;;;9.88;3.75;;;;;;;17.16;58.85;99650.63;10412989;28;20052;-78
2022/06/12 00:44:06;;;;;;;102.10;9.65;;;;;;;16.33;58.52;99547.50;10411892;28;20045;-78
2022/06/12 00:49:22;;;;;;;107.07;9.32;;;;;;;16.94;60.95;99631.53;10411989;28;20179;-78
2022/06/12 00:54:24;;;;;;;51.78;5.95;;;;;;;16.98;59.34;99651.47;10412431;28;20489;-78
2022/06/12 00:59:42;;;;;;;12.13;3.67;;;;;;;16.91;63.55;99650.75;10411733;28;20069;-77
2022/06/12 01:10:06;;;;;;;19.98;3.67;;;;;;;16.98;62.17;99647.97;10412444;28;20093;-77
2022/06/12 01:15:17;;;;;;;17.75;3.35;;;;;;;17.05;63.26;99635.28;10415047;28;20048;-77
2022/06/12 01:20:25;;;;;;;118.95;11.63;;;;;;;16.90;62.80;99624.97;10418799;28;20120;-77
2022/06/12 01:26:03;;;;;;;8.85;2.90;;;;;;;17.02;64.03;99649.16;10434641;28;20037;-78
2022/06/12 01:31:28;;;;;;;149.50;10.60;;;;;;;16.23;64.30;99531.13;10418270;28;20099;-77
2022/06/12 01:36:49;;;;;;;79.55;7.45;;;;;;;16.63;65.21;99653.94;10418223;28;20118;-78
2022/06/12 01:42:00;;;;;;;18.95;3.03;;;;;;;16.43;66.02;99636.25;10418976;28;20459;-77
2022/06/12 01:47:12;;;;;;;14.35;2.85;;;;;;;15.12;65.31;99414.28;10418618;28;20092;-77
2022/06/12 01:52:22;;;;;;;17.25;2.95;;;;;;;16.55;66.12;99622.91;10418674;28;20493;-77
2022/06/12 01:57:32;;;;;;;58.42;7.22;;;;;;;16.67;65.41;99636.38;10418484;28;20052;-78
2022/06/12 02:02:37;;;;;;;13.45;2.85;;;;;;;16.91;64.18;99645.41;10417907;28;20038;-77
2022/06/12 02:07:48;;;;;;;;;;;;;;;17.30;62.55;99652.06;10417338;28;20068;-76
2022/06/12 02:13:12;;;;;;;106.05;7.05;;;;;;;17.02;65.99;99608.91;10418332;28;20369;-78
2022/06/12 02:18:20;;;;;;;10.98;2.80;;;;;;;16.93;64.24;99522.59;10417141;28;20040;-77
2022/06/12 02:23:45;;;;;;;7.07;2.45;;;;;;;18.24;61.91;99636.06;10416878;28;20061;-76
2022/06/12 02:28:56;;;;;;;8.60;2.60;;;;;;;18.13;59.14;99467.56;10415726;28;20057;-78
2022/06/12 02:34:00;;;;;;;8.63;3.03;;;;;;;19.88;57.50;99638.34;10398758;28;20041;-77
2022/06/12 02:39:14;;;;;;;8.73;2.38;;;;;;;20.06;57.94;99641.59;10376850;28;20061;-77
2022/06/12 02:44:20;;;;;;;7.43;2.05;;;;;;;19.91;57.05;99627.91;10399503;28;20050;-77
2022/06/12 02:49:21;;;;;;;9.73;2.72;;;;;;;20.33;56.49;99632.00;10413449;28;20136;-77
2022/06/12 02:54:47;;;;;;;9.35;2.45;;;;;;;21.41;53.77;99649.19;10428660;28;20041;-76
2022/06/12 02:59:59;;;;;;;12.45;3.10;;;;;;;22.50;50.69;99644.31;10410470;28;20046;-77
2022/06/12 03:05:14;;;;;;;12.90;3.97;;;;;;;23.94;45.77;99653.56;10410643;28;20037;-77
2022/06/12 03:10:20;;;;;;;26.83;4.20;;;;;;;23.94;43.96;99498.16;10408473;28;20044;-77
2022/06/12 03:15:51;;;;;;;13.15;3.30;;;;;;;25.81;42.67;99630.38;10408310;28;20464;-77
2022/06/12 03:21:05;;;;;;;11.37;3.37;;;;;;;26.20;41.56;99632.19;10429339;28;20103;-77
2022/06/12 03:26:11;;;;;;;14.65;3.42;;;;;;;26.78;39.90;99623.91;10414961;28;20575;-76
2022/06/12 03:31:23;;;;;;;12.80;3.30;;;;;;;27.75;38.08;99619.69;10414321;28;20041;-77
2022/06/12 03:36:45;;;;;;;14.18;3.10;;;;;;;28.38;37.70;99628.41;10413764;28;20493;-77
2022/06/12 03:41:54;;;;;;;13.85;3.22;;;;;;;28.81;36.72;99603.50;10414549;28;20127;-77
2022/06/12 03:47:07;;;;;;;14.15;3.60;;;;;;;28.94;35.27;99534.28;10399027;28;20439;-78
2022/06/12 03:52:27;;;;;;;15.10;3.58;;;;;;;30.31;35.01;99605.81;10372289;28;20042;-76
2022/06/12 03:57:52;;;;;;;10.85;3.17;;;;;;;30.81;33.00;99621.09;10372202;28;20048;-76
2022/06/12 04:03:19;;;;;;;18.55;3.95;;;;;;;30.51;33.04;99510.41;10373057;28;20041;-77
2022/06/12 04:08:24;;;;;;;43.92;7.38;;;;;;;30.46;32.99;99527.84;10371250;28;20049;-77
2022/06/12 04:13:26;;;;;;;11.98;3.65;;;;;;;30.76;33.13;99560.91;10371671;28;20049;-77
2022/06/12 04:18:28;;;;;;;18.00;3.17;;;;;;;30.97;32.53;99594.81;10371746;28;20507;-76
2022/06/12 04:24:01;;;;;;;16.95;3.25;;;;;;;31.24;31.51;99592.88;10372718;28;20045;-77
2022/06/12 04:29:20;;;;;;;12.77;2.58;;;;;;;30.65;31.69;99561.22;10371523;28;20136;-75
2022/06/12 04:34:40;;;;;;;10.68;2.70;;;;;;;31.04;31.78;99594.34;10371573;28;20188;-77
2022/06/12 04:39:42;;;;;;;20.88;3.20;;;;;;;30.74;31.67;99599.59;10371950;28;20037;-76
2022/06/12 04:44:43;;;;;;;11.00;2.33;;;;;;;30.92;30.71;99589.50;10371911;28;20033;-77
2022/06/12 04:49:46;;;;;;;15.18;2.80;;;;;;;31.14;31.14;99588.50;10375082;28;20401;-76
2022/06/12 04:54:47;;;;;;;;;;;;;;;32.03;30.96;99597.09;10411791;28;20045;-79
2022/06/12 04:59:48;;;;;;;4.35;1.85;;;;;;;31.47;29.30;99588.84;10417081;28;19920;-76
2022/06/12 05:04:49;;;;;;;6.03;1.75;;;;;;;32.00;27.64;99553.81;10420062;28;20037;-80
2022/06/12 05:09:50;;;;;;;8.48;1.80;;;;;;;32.04;25.39;99517.09;10420009;28;20061;-77
2022/06/12 05:14:51;;;;;;;11.38;1.88;;;;;;;32.55;26.02;99580.38;10401475;28;20192;-77
2022/06/12 05:19:52;;;;;;;5.30;1.40;;;;;;;31.57;23.75;99469.66;10378429;28;20061;-78
2022/06/12 05:24:53;;;;;;;7.60;1.70;;;;;;;31.78;24.14;99522.69;10377756;28;20033;-78
2022/06/12 05:29:54;;;;;;;12.25;2.00;;;;;;;31.75;24.30;99548.06;10378210;28;20128;-78
2022/06/12 05:34:55;;;;;;;3.35;1.42;;;;;;;31.59;24.49;99545.06;10377331;28;20401;-76
2022/06/12 05:39:56;;;;;;;11.07;1.52;;;;;;;31.96;24.76;99558.34;10414548;28;20048;-80
2022/06/12 05:44:56;;;;;;;13.52;2.20;;;;;;;32.06;24.68;99560.72;10404750;28;20045;-78
2022/06/12 05:49:57;;;;;;;13.68;1.70;;;;;;;31.71;23.86;99519.66;10418134;28;20119;-76
2022/06/12 05:54:58;;;;;;;9.38;2.05;;;;;;;31.52;24.69;99476.13;10417928;28;20091;-75
2022/06/12 05:59:59;;;;;;;8.30;1.95;;;;;;;32.08;24.05;99517.25;10417420;28;20037;-75
2022/06/12 06:05:00;;;;;;;35.78;3.08;;;;;;;32.10;23.49;99487.50;10416349;28;20080;-75
2022/06/12 06:10:03;;;;;;;9.07;2.00;;;;;;;32.36;22.71;99525.00;10407486;28;20092;-76
2022/06/12 06:15:05;;;;;;;10.82;1.92;;;;;;;32.34;23.99;99494.28;10417315;28;20045;-79
2022/06/12 06:20:07;;;;;;;24.00;2.67;;;;;;;32.46;23.44;99519.16;10417490;28;20588;-77
2022/06/12 06:25:09;;;;;;;14.73;1.50;;;;;;;32.38;22.97;99515.28;10417492;28;20041;-76
2022/06/12 06:30:10;;;;;;;9.35;1.83;;;;;;;32.17;23.56;99452.06;10416721;28;20095;-77
2022/06/12 06:35:13;;;;;;;17.60;1.87;;;;;;;31.98;23.28;99413.22;10415655;28;20037;-76
2022/06/12 06:40:15;;;;;;;9.77;1.85;;;;;;;32.47;22.86;99498.75;10416370;28;20049;-74
2022/06/12 06:50:39;;;;;;;11.80;1.92;;;;;;;32.46;22.63;99453.19;10413198;28;20041;-75
2022/06/12 06:55:40;;;;;;;14.38;1.92;;;;;;;32.92;22.97;99481.53;10415612;28;20048;-76
2022/06/12 07:00:43;;;;;;;22.00;2.90;;;;;;;32.08;22.51;99362.59;10415553;28;20056;-79
2022/06/12 07:05:46;;;;;;;11.07;1.90;;;;;;;32.63;22.83;99433.75;10414635;28;20072;-76
2022/06/12 07:10:48;;;;;;;20.85;2.00;;;;;;;32.98;22.44;99458.22;10414290;28;20107;-75
2022/06/12 07:15:49;;;;;;;49.67;5.05;;;;;;;33.20;22.65;99468.00;10415753;28;20037;-76
2022/06/12 07:20:56;;;;;;;13.77;2.35;;;;;;;33.23;21.93;99450.00;10414749;28;20041;-77
2022/06/12 07:26:02;;;;;;;29.90;4.00;;;;;;;33.41;22.74;99451.41;10414294;28;20528;-77
2022/06/12 07:31:05;;;;;;;10.80;1.85;;;;;;;33.42;22.04;99450.28;10413948;28;20648;-78
2022/06/12 07:36:09;;;;;;;7.35;1.75;;;;;;;33.47;22.10;99461.03;10414355;28;20045;-75
2022/06/12 07:41:11;;;;;;;22.65;2.20;;;;;;;33.59;22.10;99452.81;10414256;28;20461;-76
2022/06/12 07:46:15;;;;;;;9.13;1.70;;;;;;;33.46;21.05;99414.59;10413805;28;20512;-76
2022/06/12 07:51:19;;;;;;;29.95;3.28;;;;;;;33.61;21.45;99416.69;10413872;28;20478;-77
2022/06/12 07:56:23;;;;;;;11.13;2.10;;;;;;;33.34;21.35;99421.69;10413518;28;20053;-79
2022/06/12 08:01:27;;;;;;;15.73;2.17;;;;;;;33.57;21.84;99419.34;10413704;28;20083;-75
2022/06/12 08:06:28;;;;;;;14.43;2.03;;;;;;;33.48;21.66;99395.81;10413240;28;20107;-77
2022/06/12 08:11:29;;;;;;;13.05;1.60;;;;;;;33.61;21.66;99387.19;10412704;28;20083;-78
2022/06/12 08:16:31;;;;;;;32.90;3.25;;;;;;;33.53;20.93;99401.88;10395110;28;20042;-77
2022/06/12 08:21:31;;;;;;;20.20;2.20;;;;;;;33.64;21.21;99378.25;10398812;28;20141;-76
2022/06/12 08:26:33;;;;;;;12.98;2.67;;;;;;;33.21;20.88;99343.03;10406103;28;20049;-79
2022/06/12 08:31:50;;;;;;;14.90;2.27;;;;;;;33.60;21.93;99355.31;10422060;28;20045;-77
2022/06/12 08:36:57;;;;;;;25.83;2.88;;;;;;;33.96;21.08;99385.91;10419533;28;20095;-79
2022/06/12 08:42:11;;;;;;;8.98;1.67;;;;;;;33.51;19.82;99373.91;10410245;28;20191;-81
2022/06/12 08:47:48;;;;;;;15.40;1.90;;;;;;;33.56;19.99;99370.91;10400264;28;20501;-74
2022/06/12 08:53:02;;;;;;;20.65;2.33;;;;;;;33.46;20.74;99385.13;10400643;28;20050;-82
2022/06/12 08:58:09;;;;;;;8.15;1.85;;;;;;;32.91;20.80;99257.13;10411090;28;20029;-79
2022/06/12 09:03:17;;;;;;;14.43;2.22;;;;;;;33.72;19.81;99326.16;10396293;28;20436;-77
2022/06/12 09:08:27;;;;;;;14.75;2.08;;;;;;;33.74;20.67;99348.63;10396015;28;20560;-76
2022/06/12 09:13:37;;;;;;;8.18;1.80;;;;;;;33.62;20.63;99330.97;10392767;28;20509;-75
2022/06/12 09:18:44;;;;;;;11.23;2.00;;;;;;;32.89;21.56;99229.97;10395708;28;20421;-75
2022/06/12 09:23:54;;;;;;;39.35;3.85;;;;;;;33.92;21.47;99335.38;10392667;28;20401;-82
2022/06/12 09:29:22;;;;;;;12.48;1.85;;;;;;;34.30;20.18;99326.66;10393186;28;20081;-79
2022/06/12 09:34:37;;;;;;;36.78;3.80;;;;;;;33.63;20.53;99225.19;10393336;28;20533;-75
2022/06/12 09:39:51;;;;;;;8.10;1.73;;;;;;;33.80;20.27;99303.16;10399362;28;20049;-76
2022/06/12 09:45:26;;;;;;;8.05;1.90;;;;;;;33.80;20.57;99305.91;10397050;28;20066;-77
2022/06/12 09:50:38;;;;;;;25.80;2.40;;;;;;;33.82;19.92;99320.16;10392666;28;20054;-83
2022/06/12 09:55:47;;;;;;;11.18;2.05;;;;;;;33.81;20.05;99321.31;10392416;28;20038;-80
2022/06/12 10:01:02;;;;;;;21.08;2.20;;;;;;;33.75;20.34;99273.13;10399126;28;20054;-76
2022/06/12 10:06:25;;;;;;;7.88;1.48;;;;;;;33.95;19.99;99299.66;10392994;28;20054;-78
2022/06/12 10:11:33;;;;;;;35.33;2.40;;;;;;;33.78;20.39;99313.75;10393823;28;20047;-76
2022/06/12 10:16:44;;;;;;;12.00;1.98;;;;;;;33.68;19.03;99308.69;10394001;28;20030;-81
2022/06/12 10:21:50;;;;;;;36.63;3.70;;;;;;;33.55;19.79;99299.66;10410450;28;20095;-78
2022/06/12 10:26:58;;;;;;;4.82;1.50;;;;;;;33.46;19.74;99275.00;10415852;28;20049;-73
2022/06/12 10:32:01;;;;;;;19.20;2.70;;;;;;;33.63;19.59;99271.22;10414619;28;20412;-82
2022/06/12 10:37:23;;;;;;;20.08;2.40;;;;;;;33.37;19.72;99291.63;10416474;28;20559;-76
2022/06/12 10:42:33;;;;;;;;;;;;;;;33.60;19.52;99271.91;10416711;28;20489;-76
2022/06/12 10:47:44;;;;;;;5.63;1.70;;;;;;;33.38;19.10;99245.63;10414461;28;20287;-80
2022/06/12 10:53:10;;;;;;;14.05;3.08;;;;;;;33.97;19.88;99275.31;10415641;28;20571;-79
2022/06/12 10:58:24;;;;;;;9.95;3.05;;;;;;;34.09;19.25;99269.00;10414756;28;20196;-81
2022/06/12 11:04:04;;;;;;;7.13;4.47;;;;;;;33.79;18.63;99232.69;10414500;28;20053;-74
2022/06/12 11:09:08;;;;;;;10.27;2.40;;;;;;;32.71;18.90;99055.34;10408037;28;20057;-77
2022/06/12 11:14:20;;;;;;;15.90;2.92;;;;;;;34.08;19.24;99248.91;10413345;28;20552;-79
2022/06/12 11:19:41;;;;;;;26.20;2.60;;;;;;;33.34;18.84;99142.91;10429603;28;20041;-76
2022/06/12 11:24:57;;;;;;;25.20;3.40;;;;;;;34.02;19.35;99242.03;10414728;28;20056;-76
2022/06/12 11:30:16;;;;;;;28.13;3.33;;;;;;;33.66;19.76;99226.44;10413202;28;20382;-77
2022/06/12 11:35:29;;;;;;;17.58;2.50;;;;;;;33.84;19.29;99232.47;10413619;28;20041;-76
2022/06/12 11:40:38;;;;;;;12.20;2.22;;;;;;;33.76;19.01;99236.16;10413072;28;20451;-76
2022/06/12 11:45:48;;;;;;;16.38;4.97;;;;;;;33.78;18.75;99234.66;10413468;28;20049;-76
2022/06/12 11:51:10;;;;;;;23.95;3.83;;;;;;;33.00;18.65;99095.53;10412327;28;20037;-80
2022/06/12 11:56:46;;;;;;;23.38;3.53;;;;;;;33.72;18.76;99225.03;10413579;28;20044;-78
2022/06/12 12:02:07;;;;;;;9.77;2.35;;;;;;;33.48;19.42;99212.13;10409850;28;20051;-76
2022/06/12 12:07:17;;;;;;;19.27;2.93;;;;;;;32.83;18.89;99101.28;10412843;28;20061;-78
2022/06/12 12:12:26;;;;;;;17.23;2.45;;;;;;;33.37;19.00;99198.03;10411519;28;20080;-74
2022/06/12 12:17:37;;;;;;;10.27;2.47;;;;;;;33.12;19.32;99213.81;10412484;28;20043;-76
2022/06/12 12:22:46;;;;;;;8.18;2.15;;;;;;;32.28;19.38;99101.53;10411077;28;20041;-75
2022/06/12 12:27:52;;;;;;;9.18;2.35;;;;;;;32.70;20.00;99185.75;10409380;28;20048;-79
2022/06/12 12:32:56;;;;;;;17.27;2.70;;;;;;;32.60;20.17;99191.69;10411161;28;20056;-78
2022/06/12 12:43:17;;;;;;;14.15;2.80;;;;;;;32.45;20.48;99201.41;10412735;28;20037;-78
2022/06/12 12:48:17;;;;;;;12.63;2.90;;;;;;;32.26;20.44;99172.50;10411112;28;20520;-75
2022/06/12 12:53:26;;;;;;;15.93;2.95;;;;;;;32.17;20.64;99187.50;10411352;28;20037;-79
2022/06/12 12:58:28;;;;;;;20.95;5.90;;;;;;;31.94;20.68;99154.13;10411859;28;20532;-76
2022/06/12 13:03:38;;;;;;;29.30;3.40;;;;;;;32.04;20.43;99167.44;10402372;28;20152;-76
2022/06/12 13:09:03;;;;;;;8.77;2.50;;;;;;;32.19;20.98;99165.94;10395321;28;20296;-77
2022/06/12 13:14:25;;;;;;;16.98;2.80;;;;;;;32.03;20.97;99166.59;10406060;28;20037;-74
2022/06/12 13:19:46;;;;;;;23.52;3.55;;;;;;;32.22;20.74;99177.09;10407768;28;20084;-77
2022/06/12 13:25:00;;;;;;;12.23;2.47;;;;;;;32.32;20.54;99167.59;10397936;28;20046;-76
2022/06/12 13:30:01;;;;;;;12.52;3.30;;;;;;;32.22;20.17;99141.38;10394795;28;20503;-79
2022/06/12 13:35:17;;;;;;;21.35;3.17;;;;;;;32.48;20.43;99148.50;10408707;28;20394;-75
2022/06/12 13:40:25;;;;;;;65.80;6.43;;;;;;;32.29;20.67;99160.81;10393089;28;20037;-77
2022/06/12 13:45:26;;;;;;;18.67;3.10;;;;;;;31.46;20.96;99034.78;10397555;28;20041;-76
2022/06/12 13:50:35;;;;;;;71.03;6.05;;;;;;;31.83;20.75;99118.84;10409955;28;20045;-76
2022/06/12 13:55:51;;;;;;;22.23;3.70;;;;;;;31.89;20.51;99162.53;10391942;28;20560;-81
2022/06/12 14:01:16;;;;;;;44.05;5.00;;;;;;;31.78;21.32;99156.69;10401363;28;20599;-72
2022/06/12 14:06:23;;;;;;;20.48;3.38;;;;;;;31.66;20.33;99149.22;10405044;28;20053;-78
2022/06/12 14:11:27;;;;;;;29.63;3.58;;;;;;;31.41;20.41;99151.06;10401568;28;20121;-75
2022/06/12 14:16:30;;;;;;;21.20;3.10;;;;;;;30.73;20.15;99063.44;10398422;28;20505;-77
2022/06/12 14:21:34;;;;;;;18.02;3.28;;;;;;;30.90;20.86;99118.16;10409478;28;20064;-76
2022/06/12 14:26:39;;;;;;;26.85;4.30;;;;;;;30.88;21.43;99142.38;10397478;28;20057;-76
2022/06/12 14:31:40;;;;;;;60.90;6.00;;;;;;;30.74;21.11;99146.47;10391980;28;20033;-74
2022/06/12 14:37:27;;;;;;;39.85;4.22;;;;;;;30.74;20.50;99160.16;10392000;28;20397;-75
2022/06/12 14:42:29;;;;;;;26.88;3.33;;;;;;;30.41;20.77;99152.59;10395807;28;20050;-75
2022/06/12 14:47:34;;;;;;;45.13;4.63;;;;;;;30.34;21.21;99155.03;10395070;28;20498;-73
2022/06/12 14:52:35;;;;;;;24.98;3.67;;;;;;;30.50;20.66;99158.03;10392249;28;20041;-74
2022/06/12 14:57:36;;;;;;;20.48;3.38;;;;;;;30.84;20.66;99179.81;10390655;28;20493;-76
2022/06/12 15:02:37;;;;;;;28.42;3.17;;;;;;;30.97;20.52;99177.16;10393088;28;20041;-75
2022/06/12 15:07:38;;;;;;;19.23;2.08;;;;;;;30.76;20.66;99172.41;10394544;28;20425;-78
2022/06/12 15:12:40;;;;;;;28.00;4.15;;;;;;;30.68;20.77;99195.19;10390544;28;20033;-81
2022/06/12 15:17:41;;;;;;;20.45;3.13;;;;;;;29.48;20.98;99050.88;10390555;28;20454;-78
2022/06/12 15:22:42;;;;;;;32.53;3.88;;;;;;;29.48;21.05;99093.84;10388876;28;20128;-79
2022/06/12 15:33:02;;;;;;;20.52;3.25;;;;;;;29.69;21.44;99170.63;10388292;28;20125;-76
2022/06/12 15:38:03;;;;;;;32.95;3.42;;;;;;;28.87;22.02;99050.09;10397041;28;20029;-77
2022/06/12 15:43:03;;;;;;;17.17;2.58;;;;;;;29.56;22.37;99166.91;10392724;28;20095;-75
2022/06/12 15:48:05;;;;;;;17.98;2.35;;;;;;;29.38;22.42;99155.19;10402632;28;20037;-79
2022/06/12 15:53:07;;;;;;;25.25;3.22;;;;;;;29.15;22.58;99170.91;10413899;28;20088;-77
2022/06/12 15:58:07;;;;;;;20.90;3.30;;;;;;;28.81;22.66;99134.19;10387351;28;20045;-74
2022/06/12 16:03:09;;;;;;;11.65;2.33;;;;;;;28.64;22.89;99140.41;10395490;28;20124;-75
2022/06/12 16:08:10;;;;;;;7.93;2.17;;;;;;;28.44;23.19;99117.19;10397826;28;20061;-77
2022/06/12 16:13:14;;;;;;;9.13;2.33;;;;;;;28.61;23.40;99168.34;10406297;28;20033;-76
2022/06/12 16:18:15;;;;;;;18.25;2.55;;;;;;;28.51;23.63;99179.56;10406542;28;20037;-76
2022/06/12 16:23:16;;;;;;;13.73;2.17;;;;;;;28.34;24.21;99193.13;10401424;28;20038;-74
2022/06/12 16:28:20;;;;;;;8.13;2.10;;;;;;;28.11;25.55;99197.81;10400524;28;20041;-74
2022/06/12 16:33:22;;;;;;;8.23;1.88;;;;;;;27.72;26.25;99178.25;10399920;28;20069;-76
2022/06/12 16:38:24;;;;;;;11.33;1.83;;;;;;;27.69;27.05;99197.97;10394497;28;20034;-75
2022/06/12 16:43:25;;;;;;;18.50;3.15;;;;;;;26.11;27.43;98969.81;10392052;28;20283;-75
2022/06/12 16:48:26;;;;;;;17.10;2.33;;;;;;;27.04;27.18;99139.19;10394679;28;20559;-75
2022/06/12 16:53:27;;;;;;;8.25;2.15;;;;;;;26.83;28.11;99132.53;10395058;28;20029;-76
2022/06/12 16:58:28;;;;;;;11.32;2.20;;;;;;;26.79;28.85;99167.78;10394240;28;20097;-74
2022/06/12 17:03:29;;;;;;;16.35;2.30;;;;;;;26.75;29.13;99195.94;10411670;28;20059;-75
2022/06/12 17:08:30;;;;;;;6.20;1.60;;;;;;;26.28;29.38;99174.19;10404900;28;20054;-75
2022/06/12 17:13:30;;;;;;;8.52;1.30;;;;;;;26.32;29.52;99220.66;10415155;28;20132;-75
2022/06/12 17:23:55;;;;;;;11.10;1.90;;;;;;;26.00;30.72;99224.22;10394957;28;20112;-75
2022/06/12 17:28:56;;;;;;;15.10;1.60;;;;;;;25.58;30.96;99196.03;10377543;28;20042;-75
2022/06/12 17:33:58;;;;;;;19.05;2.05;;;;;;;24.62;31.70;99082.94;10377109;28;20132;-74
2022/06/12 17:38:58;;;;;;;8.55;2.08;;;;;;;25.42;32.14;99245.16;10377507;28;20492;-74
2022/06/12 17:43:59;;;;;;;11.95;3.58;;;;;;;24.96;32.48;99218.56;10376080;28;20044;-74
2022/06/12 17:49:00;;;;;;;7.65;2.92;;;;;;;24.86;32.64;99237.72;10378775;28;20049;-75
2022/06/12 17:54:01;;;;;;;7.97;2.22;;;;;;;24.78;33.19;99249.19;10398360;28;20037;-73
2022/06/12 17:59:02;;;;;;;9.95;1.77;;;;;;;23.79;33.80;99122.06;10407285;28;20485;-75
2022/06/12 18:04:05;;;;;;;15.50;2.47;;;;;;;24.27;34.41;99253.19;10386694;28;20073;-75
2022/06/12 18:09:09;;;;;;;6.75;1.77;;;;;;;24.21;34.68;99264.38;10406577;28;20066;-75
2022/06/12 18:14:10;;;;;;;7.47;2.10;;;;;;;24.04;35.15;99256.63;10416505;28;20049;-75
2022/06/12 18:19:15;;;;;;;5.13;2.03;;;;;;;23.78;35.59;99242.44;10397380;28;20042;-74
2022/06/12 18:24:23;;;;;;;6.03;1.75;;;;;;;23.67;36.42;99258.78;10403657;28;20122;-75
2022/06/12 18:29:25;;;;;;;9.32;2.05;;;;;;;23.44;36.54;99246.69;10415055;28;20144;-73
2022/06/12 18:34:25;;;;;;;5.35;2.10;;;;;;;23.21;36.73;99256.31;10416736;28;20076;-73
2022/06/12 18:39:26;;;;;;;10.32;2.50;;;;;;;22.89;36.93;99204.41;10416441;28;20065;-73
2022/06/12 18:44:28;;;;;;;7.75;1.80;;;;;;;22.20;37.02;99105.84;10415593;28;20041;-75
2022/06/12 18:49:29;;;;;;;11.50;2.08;;;;;;;22.20;37.84;99116.66;10415315;28;20041;-73
2022/06/12 18:54:30;;;;;;;6.07;1.90;;;;;;;22.93;38.36;99238.75;10415912;28;20045;-73
2022/06/12 18:59:31;;;;;;;13.40;2.00;;;;;;;22.06;38.36;99109.06;10414663;28;20079;-74
2022/06/12 19:04:32;;;;;;;10.18;2.17;;;;;;;22.84;38.17;99226.88;10415428;28;20049;-72
2022/06/12 19:09:33;;;;;;;20.05;3.17;;;;;;;22.88;38.37;99224.44;10415024;28;20061;-73
2022/06/12 19:14:34;;;;;;;8.70;2.70;;;;;;;22.14;38.48;99093.38;10414674;28;20386;-73
2022/06/12 19:19:35;;;;;;;15.57;3.85;;;;;;;22.91;38.33;99226.59;10415008;28;20042;-73
2022/06/12 19:24:36;;;;;;;21.00;6.28;;;;;;;22.82;38.74;99215.50;10414432;28;20045;-73
2022/06/12 19:29:37;;;;;;;22.10;10.52;;;;;;;22.51;39.05;99179.63;10415207;28;20045;-72
2022/06/12 19:34:38;;;;;;;17.92;9.82;;;;;;;21.78;40.16;99083.44;10412360;28;20040;-73
2022/06/12 19:39:39;;;;;;;12.57;4.80;;;;;;;22.61;40.87;99246.44;10414082;28;20041;-73
2022/06/12 19:44:41;;;;;;;12.02;3.78;;;;;;;22.47;41.01;99233.47;10414239;28;20041;-73
2022/06/12 19:49:42;;;;;;;17.23;5.03;;;;;;;22.37;41.55;99240.78;10414022;28;20409;-73
2022/06/12 19:54:44;;;;;;;10.82;4.00;;;;;;;22.26;42.15;99257.06;10413937;28;20030;-73
2022/06/12 19:59:46;;;;;;;14.13;2.60;;;;;;;22.08;41.79;99222.41;10407778;28;20053;-73
2022/06/12 20:10:13;;;;;;;7.38;2.10;;;;;;;21.84;43.76;99251.88;10412527;28;20067;-73
2022/06/12 20:15:16;;;;;;;6.57;1.90;;;;;;;21.52;43.19;99242.06;10411124;28;20500;-73
2022/06/12 20:20:23;;;;;;;9.55;2.35;;;;;;;21.52;42.86;99258.28;10413686;28;20048;-73
2022/06/12 20:25:24;;;;;;;10.95;2.20;;;;;;;21.53;43.29;99278.00;10413690;28;20037;-72
2022/06/12 20:30:25;;;;;;;11.88;2.05;;;;;;;20.48;43.66;99139.31;10411788;28;20045;-73
2022/06/12 20:35:26;;;;;;;10.63;1.95;;;;;;;20.97;43.80;99252.41;10413282;28;20037;-73
2022/06/12 20:40:28;;;;;;;13.63;2.03;;;;;;;21.10;44.24;99290.78;10411617;28;20041;-73
2022/06/12 20:45:29;;;;;;;15.07;2.40;;;;;;;20.15;44.83;99163.94;10412695;28;20113;-73
2022/06/12 20:50:30;;;;;;;10.30;2.40;;;;;;;20.96;44.49;99285.84;10411761;28;20039;-73
2022/06/12 20:55:31;;;;;;;11.73;2.47;;;;;;;20.82;45.06;99264.97;10411956;28;20045;-73
2022/06/12 21:00:32;;;;;;;7.35;2.05;;;;;;;19.44;45.38;99069.88;10410572;28;20400;-73
2022/06/12 21:05:33;;;;;;;10.30;2.10;;;;;;;20.65;45.52;99267.88;10406530;28;20057;-73
2022/06/12 21:10:35;;;;;;;11.82;2.00;;;;;;;20.46;46.50;99268.25;10411747;28;20048;-73
2022/06/12 21:15:36;;;;;;;12.20;2.40;;;;;;;20.49;46.44;99302.81;10412288;28;20049;-73
2022/06/12 21:20:41;;;;;;;12.02;1.90;;;;;;;20.31;46.67;99281.59;10412178;28;20496;-73
2022/06/12 21:25:44;;;;;;;7.63;1.60;;;;;;;20.13;47.70;99285.50;10410774;28;20037;-73
2022/06/12 21:30:47;;;;;;;8.75;2.42;;;;;;;19.86;47.38;99261.28;10413392;28;20048;-72
2022/06/12 21:35:48;;;;;;;7.93;2.13;;;;;;;19.75;47.90;99273.84;10420058;28;20050;-73
2022/06/12 21:40:49;;;;;;;6.07;1.88;;;;;;;19.59;48.16;99270.16;10418255;28;20056;-72
2022/06/12 21:45:50;;;;;;;8.45;1.90;;;;;;;19.48;48.49;99273.81;10418093;28;20052;-72
2022/06/12 21:50:51;;;;;;;4.65;1.42;;;;;;;19.46;48.25;99256.25;10417314;28;20041;-73
2022/06/12 21:55:51;;;;;;;8.38;1.77;;;;;;;19.33;48.92;99255.59;10418627;28;20042;-73
2022/06/12 22:00:52;;;;;;;11.93;1.90;;;;;;;19.16;49.18;99244.88;10417687;28;20042;-72
2022/06/12 22:05:53;;;;;;;7.70;2.13;;;;;;;18.08;49.94;99088.53;10417689;28;20084;-73
2022/06/12 22:10:57;;;;;;;7.78;1.52;;;;;;;19.02;50.29;99253.56;10417810;28;20045;-73
2022/06/12 22:15:59;;;;;;;;;;;;;;;19.14;49.50;99256.97;10418043;28;20045;-73
2022/06/12 22:21:00;;;;;;;6.97;2.08;;;;;;;18.91;49.89;99256.16;10417880;28;20402;-73
2022/06/12 22:26:00;;;;;;;10.73;3.35;;;;;;;19.13;50.14;99277.69;10416682;28;20075;-73
2022/06/12 22:31:01;;;;;;;20.65;2.33;;;;;;;19.12;50.14;99267.19;10416791;28;20115;-73
2022/06/12 22:36:03;;;;;;;10.05;2.42;;;;;;;19.23;50.22;99281.56;10416830;28;20072;-73
2022/06/12 22:41:03;;;;;;;4.38;2.10;;;;;;;19.22;50.34;99280.75;10416376;28;20497;-74
2022/06/12 22:46:04;;;;;;;6.95;2.50;;;;;;;18.66;49.87;99183.13;10416155;28;20037;-73
2022/06/12 22:51:07;;;;;;;10.35;2.22;;;;;;;19.42;50.45;99304.44;10416060;28;20048;-73
2022/06/12 22:56:07;;;;;;;7.53;1.75;;;;;;;19.15;50.18;99256.72;10415430;28;20476;-73
2022/06/12 23:01:11;;;;;;;8.52;1.90;;;;;;;19.40;50.58;99276.94;10416529;28;20135;-74
2022/06/12 23:06:12;;;;;;;6.68;1.77;;;;;;;19.61;49.78;99286.88;10415924;28;20091;-73
2022/06/12 23:11:14;;;;;;;7.25;1.85;;;;;;;19.70;49.91;99295.34;10416555;28;20041;-73
2022/06/12 23:16:15;;;;;;;8.57;1.80;;;;;;;19.60;49.71;99246.72;10414727;28;20045;-73
2022/06/12 23:21:15;;;;;;;10.82;1.70;;;;;;;19.76;50.49;99298.91;10414651;28;20033;-73
2022/06/12 23:26:20;;;;;;;6.72;1.60;;;;;;;19.51;52.51;99305.63;10415001;28;20034;-73
2022/06/12 23:31:27;;;;;;;4.22;1.63;;;;;;;19.39;53.58;99304.94;10414022;28;20071;-73
2022/06/12 23:36:28;;;;;;;10.00;1.60;;;;;;;19.32;52.63;99298.91;10414395;28;20064;-73
2022/06/12 23:41:29;;;;;;;8.27;1.83;;;;;;;19.29;52.70;99294.03;10412739;28;20589;-73
2022/06/12 23:46:32;;;;;;;5.00;1.38;;;;;;;19.42;52.60;99296.34;10414118;28;20095;-73
2022/06/12 23:51:34;;;;;;;17.85;1.55;;;;;;;19.45;52.28;99306.63;10408741;28;20055;-73
2022/06/12 23:56:35;;;;;;;5.97;1.48;;;;;;;19.26;52.12;99267.59;10413585;28;20144;-74
